PAMK

Details ICAO PAMK (SMK)
Name ST MICHAEL
Region USA (Alaska)
Timezone America/Nome (UTC-9.0)
Plans Departing 2
Arriving 1
Stats Elevation 93 ft / 28 m (AMSL)
Location 63.490049° -162.110378°
Runways 1
Magnetic Variation 11.549° E
Sunrise 2017-12-14 20:27:23 UTC / 2017-12-14 11:27:23 Local
Sunset 2017-12-15 01:02:05 UTC / 2017-12-14 16:02:05 Local
Advertisement - Login to hide

Runways

ID Width Length Bearing (true) Bearing (mag) Surface Threshold Offset Overrun Length
02 75 ft / 23 m 3,991 ft / 1,216 m 32.86° 21.31° Gravel 0 ft / 0 m 299 ft / 91 m
20 75 ft / 23 m 3,991 ft / 1,216 m 212.87° 201.32° Gravel 0 ft / 0 m 299 ft / 91 m

Map

Weather


0- 5 10 15 20 25 30 35+ Temperature / ° C

Clouds and Precipitation
Forecast for 2017-12-15 06:00 UTC. Updated an hour ago

Ground ~20,000 ft ~40,000 ft Winds

METAR

PAMK 150629Z AUTO 06004KT 10SM SCT011 BKN040 OVC065 M06/M07 A2956 RMK AO2 FZRANO $

TAF

Not found

Frequencies

Recorded 119.27 MHz ASOS
Unicom 122.80 MHz CTAF/UNICOM
Warning: Do not use this data for real-world aviation or navigation. No guarantee of current accuracy is given.